Time;durP1;ratioP1;P1;durP2;ratioP2;P2;SDS_P1;SDS_P2;PMS_P1;PMS_P2;Temp;Humidity;BMP_temperature;BMP_pressure;BME280_temperature;BME280_humidity;BME280_pressure;Samples;Min_cycle;Max_cycle;Signal;HPM_P1;HPM_P2
2021/05/03 00:01:34;;;;;;;10.40;5.70;;;4.70;99.90;;;;;;5011806;28;20382;-57
2021/05/03 00:04:00;;;;;;;7.57;5.40;;;4.60;99.90;;;;;;5011860;28;20045;-57
2021/05/03 00:06:25;;;;;;;8.60;5.68;;;4.50;99.90;;;;;;5011917;28;20026;-57
2021/05/03 00:08:51;;;;;;;8.80;5.78;;;4.50;99.90;;;;;;5011911;28;20030;-57
2021/05/03 00:11:16;;;;;;;9.32;5.43;;;4.60;99.90;;;;;;5012003;28;20045;-57
2021/05/03 00:13:42;;;;;;;13.77;5.45;;;4.60;99.90;;;;;;5011889;28;20095;-57
2021/05/03 00:16:08;;;;;;;7.65;5.95;;;4.50;99.90;;;;;;5011897;28;20029;-57
2021/05/03 00:18:33;;;;;;;8.05;5.75;;;4.50;99.90;;;;;;5011718;28;20037;-57
2021/05/03 00:21:01;;;;;;;8.45;5.38;;;4.50;99.90;;;;;;5011852;28;20022;-57
2021/05/03 00:23:26;;;;;;;7.97;5.45;;;4.50;99.90;;;;;;5011646;28;20045;-57
2021/05/03 00:25:52;;;;;;;8.23;5.20;;;4.60;99.90;;;;;;5011830;28;20081;-57
2021/05/03 00:28:17;;;;;;;6.63;5.43;;;4.70;99.90;;;;;;5011773;28;20060;-57
2021/05/03 00:30:43;;;;;;;9.07;5.28;;;4.60;99.90;;;;;;5011595;28;20029;-57
2021/05/03 00:33:09;;;;;;;7.43;5.32;;;4.60;99.90;;;;;;5011565;28;20045;-57
2021/05/03 00:35:34;;;;;;;6.82;4.97;;;4.60;99.90;;;;;;5011575;28;20041;-57
2021/05/03 00:38:01;;;;;;;8.57;4.88;;;4.50;99.90;;;;;;5011681;28;20018;-57
2021/05/03 00:40:27;;;;;;;10.60;5.32;;;4.40;99.90;;;;;;5011428;28;20215;-57
2021/05/03 00:42:53;;;;;;;7.55;5.03;;;4.50;99.90;;;;;;5011499;28;20025;-57
2021/05/03 00:45:20;;;;;;;7.85;5.20;;;4.50;99.90;;;;;;5011344;28;20029;-57
2021/05/03 00:47:46;;;;;;;6.80;5.07;;;4.50;99.90;;;;;;5011911;28;20466;-57
2021/05/03 00:50:15;;;;;;;10.52;5.35;;;4.60;99.90;;;;;;5012868;28;20031;-57
2021/05/03 00:52:41;;;;;;;6.63;5.05;;;4.70;99.90;;;;;;5015352;28;20033;-57
2021/05/03 00:55:08;;;;;;;6.65;4.55;;;4.70;99.90;;;;;;5015851;28;20430;-59
2021/05/03 00:57:34;;;;;;;8.43;5.18;;;4.50;99.90;;;;;;5015940;28;20053;-57
2021/05/03 01:00:00;;;;;;;6.72;5.07;;;4.40;99.90;;;;;;5015341;28;20033;-57
2021/05/03 01:02:25;;;;;;;8.73;4.70;;;4.40;99.90;;;;;;5015450;28;20030;-57
2021/05/03 01:04:51;;;;;;;14.07;5.85;;;4.50;99.90;;;;;;5015349;28;20030;-57
2021/05/03 01:07:17;;;;;;;13.23;5.65;;;4.50;99.90;;;;;;5015710;28;20496;-57
2021/05/03 01:09:42;;;;;;;6.05;4.88;;;4.60;99.90;;;;;;5015342;28;20043;-57
2021/05/03 01:12:09;;;;;;;9.75;5.72;;;4.70;99.90;;;;;;5015170;28;20382;-57
2021/05/03 01:14:35;;;;;;;8.63;5.97;;;4.70;99.90;;;;;;5015462;28;20030;-57
2021/05/03 01:17:01;;;;;;;7.60;5.13;;;4.80;99.90;;;;;;5015328;28;20197;-57
2021/05/03 01:19:28;;;;;;;6.97;5.00;;;4.80;99.90;;;;;;5015111;28;20136;-57
2021/05/03 01:21:54;;;;;;;9.45;5.22;;;4.70;99.90;;;;;;5014980;28;20030;-57
2021/05/03 01:24:20;;;;;;;7.72;5.07;;;4.60;99.90;;;;;;5014805;28;20083;-57
2021/05/03 01:26:46;;;;;;;7.38;5.72;;;4.50;99.90;;;;;;5014964;28;20050;-56
2021/05/03 01:29:13;;;;;;;5.32;4.30;;;4.60;99.90;;;;;;5014788;28;20033;-56
2021/05/03 01:31:39;;;;;;;9.32;4.35;;;4.50;99.90;;;;;;5014222;28;20088;-56
2021/05/03 01:34:09;;;;;;;8.93;4.60;;;4.50;99.90;;;;;;5014999;28;20026;-56
2021/05/03 01:36:38;;;;;;;5.72;4.47;;;4.60;99.90;;;;;;5014875;28;20529;-56
2021/05/03 01:39:09;;;;;;;8.65;4.15;;;4.80;99.90;;;;;;5014745;28;20430;-58
2021/05/03 01:41:35;;;;;;;6.97;4.47;;;5.00;99.90;;;;;;5014594;28;20080;-56
2021/05/03 01:44:02;;;;;;;9.35;4.93;;;5.00;99.90;;;;;;5015048;28;20383;-58
2021/05/03 01:46:28;;;;;;;8.55;4.50;;;5.00;99.90;;;;;;5014543;28;20109;-57
2021/05/03 01:48:58;;;;;;;8.80;4.43;;;5.10;99.90;;;;;;5013460;28;20048;-57
2021/05/03 01:51:23;;;;;;;6.07;4.35;;;5.10;99.90;;;;;;5014450;28;20509;-57
2021/05/03 01:53:49;;;;;;;8.80;4.28;;;5.30;99.90;;;;;;5013005;28;20026;-57
2021/05/03 01:56:15;;;;;;;8.18;4.40;;;5.20;99.90;;;;;;5017625;28;20053;-57
2021/05/03 01:58:41;;;;;;;6.05;4.60;;;5.30;99.90;;;;;;5031822;28;20082;-58
2021/05/03 02:01:07;;;;;;;6.75;4.80;;;5.20;99.90;;;;;;5030670;28;20041;-57
2021/05/03 02:03:33;;;;;;;8.65;4.47;;;5.20;99.90;;;;;;5029577;28;20081;-57
2021/05/03 02:05:59;;;;;;;9.40;5.28;;;5.00;99.90;;;;;;5015277;28;20026;-57
2021/05/03 02:08:25;;;;;;;6.82;4.50;;;4.90;99.90;;;;;;5014488;28;20485;-57
2021/05/03 02:10:52;;;;;;;5.18;4.68;;;4.90;99.90;;;;;;5014144;28;20033;-57
2021/05/03 02:13:19;;;;;;;6.63;4.25;;;4.90;99.90;;;;;;5014305;28;20030;-57
2021/05/03 02:15:48;;;;;;;7.43;4.47;;;5.00;99.90;;;;;;5013725;28;20109;-57
2021/05/03 02:18:14;;;;;;;5.25;4.43;;;5.00;99.90;;;;;;5013735;28;20076;-57
2021/05/03 02:20:40;;;;;;;7.43;4.25;;;5.10;99.90;;;;;;5013994;28;20022;-57
2021/05/03 02:23:06;;;;;;;8.43;5.10;;;5.10;99.90;;;;;;5013593;28;20501;-57
2021/05/03 02:25:32;;;;;;;6.55;4.45;;;5.20;99.90;;;;;;5013386;28;20376;-57
2021/05/03 02:28:00;;;;;;;7.32;5.32;;;5.20;99.90;;;;;;5013902;28;20032;-57
2021/05/03 02:30:26;;;;;;;7.78;4.45;;;5.20;99.90;;;;;;5013664;28;20030;-58
2021/05/03 02:32:52;;;;;;;10.38;4.82;;;5.20;99.90;;;;;;5013740;28;20032;-56
2021/05/03 02:35:23;;;;;;;7.90;5.28;;;5.20;99.90;;;;;;5013838;28;20032;-57
2021/05/03 02:37:56;;;;;;;6.10;5.05;;;5.10;99.90;;;;;;5013615;28;20060;-57
2021/05/03 02:40:24;;;;;;;8.02;5.70;;;5.00;99.90;;;;;;5012306;28;20029;-57
2021/05/03 02:42:51;;;;;;;8.07;5.45;;;4.90;99.90;;;;;;5013421;28;20018;-57
2021/05/03 02:45:17;;;;;;;7.50;5.45;;;4.90;99.90;;;;;;5013204;28;20025;-57
2021/05/03 02:47:44;;;;;;;9.40;5.43;;;5.00;99.90;;;;;;5013977;28;20569;-59
2021/05/03 02:50:11;;;;;;;5.97;5.35;;;5.10;99.90;;;;;;5013036;28;20091;-58
2021/05/03 02:52:37;;;;;;;9.38;5.78;;;5.10;99.90;;;;;;5013181;28;20100;-58
2021/05/03 02:55:04;;;;;;;10.10;6.15;;;5.10;99.90;;;;;;5012923;28;20112;-57
2021/05/03 02:57:29;;;;;;;10.75;5.90;;;4.90;99.90;;;;;;5011473;28;20116;-57
2021/05/03 02:59:55;;;;;;;9.32;6.00;;;4.90;99.90;;;;;;5012765;28;20157;-57
2021/05/03 03:02:21;;;;;;;7.40;6.30;;;4.90;99.90;;;;;;5012881;28;20049;-57
2021/05/03 03:04:46;;;;;;;8.68;5.90;;;4.90;99.90;;;;;;5012798;28;20022;-57
2021/05/03 03:07:12;;;;;;;10.90;6.40;;;4.70;99.90;;;;;;5012797;28;20537;-57
2021/05/03 03:09:38;;;;;;;10.30;6.38;;;4.60;99.90;;;;;;5012782;28;20041;-57
2021/05/03 03:12:05;;;;;;;8.45;6.35;;;4.60;99.90;;;;;;5012374;28;20462;-57
2021/05/03 03:14:30;;;;;;;9.23;5.93;;;4.70;99.90;;;;;;5012248;28;20034;-57
2021/05/03 03:16:56;;;;;;;10.02;6.32;;;4.50;99.90;;;;;;5012536;28;20026;-57
2021/05/03 03:19:22;;;;;;;10.50;6.57;;;4.50;99.90;;;;;;5012501;28;20489;-57
2021/05/03 03:21:47;;;;;;;10.00;6.75;;;4.60;99.90;;;;;;5012579;28;20026;-57
2021/05/03 03:24:13;;;;;;;11.02;6.78;;;4.70;99.90;;;;;;5012440;28;20064;-57
2021/05/03 03:26:38;;;;;;;10.23;6.63;;;4.80;99.90;;;;;;5012409;28;20080;-57
2021/05/03 03:29:05;;;;;;;10.63;6.53;;;4.80;99.90;;;;;;5012711;28;20061;-57
2021/05/03 03:31:30;;;;;;;12.50;6.95;;;4.60;99.90;;;;;;5012100;28;20036;-57
2021/05/03 03:33:56;;;;;;;10.98;7.25;;;4.70;99.90;;;;;;5012250;28;20530;-57
2021/05/03 03:36:22;;;;;;;9.68;7.53;;;4.70;99.90;;;;;;5012486;28;20466;-58
2021/05/03 03:38:48;;;;;;;12.48;7.90;;;4.70;99.90;;;;;;5012096;28;20029;-57
2021/05/03 03:41:13;;;;;;;11.95;6.93;;;4.70;99.90;;;;;;5012069;28;20022;-57
2021/05/03 03:43:40;;;;;;;14.02;8.07;;;4.60;99.90;;;;;;5012111;28;20260;-57
2021/05/03 03:46:05;;;;;;;13.05;8.07;;;4.40;99.90;;;;;;5012092;28;20061;-57
2021/05/03 03:48:31;;;;;;;11.27;7.93;;;4.50;99.90;;;;;;5012066;28;20061;-57
2021/05/03 03:50:57;;;;;;;13.38;7.78;;;4.60;99.90;;;;;;5011944;28;20034;-57
2021/05/03 03:53:23;;;;;;;15.82;8.88;;;4.60;99.90;;;;;;5012417;28;20029;-57
2021/05/03 03:55:48;;;;;;;12.07;8.63;;;4.80;99.90;;;;;;5011696;28;20497;-57
2021/05/03 03:58:14;;;;;;;10.52;8.00;;;4.80;99.90;;;;;;5010878;28;20029;-57
2021/05/03 04:00:40;;;;;;;13.88;8.88;;;4.90;99.90;;;;;;5011555;28;20119;-57
2021/05/03 04:03:06;;;;;;;12.02;8.23;;;4.90;99.90;;;;;;5011753;28;20030;-57
2021/05/03 04:22:00;;;;;;;12.68;8.55;;;4.70;99.90;;;;;;5011623;28;20509;-58
2021/05/03 04:24:50;;;;;;;10.95;8.27;;;4.70;99.90;;;;;;5011319;28;20034;-58
2021/05/03 04:27:15;;;;;;;13.27;8.80;;;4.60;99.90;;;;;;5011527;28;20038;-57
2021/05/03 04:29:41;;;;;;;15.35;9.05;;;4.60;99.90;;;;;;5011322;28;20053;-57
2021/05/03 04:32:07;;;;;;;13.07;8.02;;;4.60;99.90;;;;;;5011536;28;20068;-57
2021/05/03 04:34:32;;;;;;;13.75;8.77;;;4.50;99.90;;;;;;5011458;28;20030;-57
2021/05/03 04:36:58;;;;;;;15.85;9.10;;;4.50;99.90;;;;;;5011858;28;20026;-57
2021/05/03 04:39:23;;;;;;;13.75;8.90;;;4.40;99.90;;;;;;5011008;28;20105;-57
2021/05/03 04:41:49;;;;;;;17.17;9.40;;;4.40;99.90;;;;;;5011186;28;20467;-57
2021/05/03 04:44:14;;;;;;;12.25;9.50;;;4.30;99.90;;;;;;5011342;28;20132;-57
2021/05/03 04:46:40;;;;;;;13.00;9.30;;;4.30;99.90;;;;;;5011010;28;20030;-57
2021/05/03 04:49:06;;;;;;;11.18;8.48;;;4.30;99.90;;;;;;5011203;28;20026;-58
2021/05/03 04:51:31;;;;;;;11.63;8.55;;;4.20;99.90;;;;;;5010934;28;20037;-57
2021/05/03 04:53:57;;;;;;;15.23;9.27;;;4.30;99.90;;;;;;5010957;28;20026;-57
2021/05/03 04:56:22;;;;;;;14.95;9.57;;;4.40;99.90;;;;;;5011597;28;20084;-58
2021/05/03 04:58:48;;;;;;;15.15;9.25;;;4.40;99.90;;;;;;5011079;28;20037;-58
2021/05/03 05:01:13;;;;;;;19.00;9.55;;;4.50;99.90;;;;;;5011305;28;20030;-58
2021/05/03 05:03:39;;;;;;;20.02;10.30;;;4.40;99.90;;;;;;5010829;28;20394;-58
2021/05/03 05:06:05;;;;;;;20.08;9.90;;;4.40;99.90;;;;;;5011309;28;20069;-58
2021/05/03 05:08:31;;;;;;;17.77;10.02;;;4.30;99.90;;;;;;5009990;28;20026;-58
2021/05/03 05:10:56;;;;;;;18.35;10.50;;;4.20;99.90;;;;;;5011370;28;20037;-58
2021/05/03 05:13:22;;;;;;;19.27;11.45;;;4.20;99.90;;;;;;5011199;28;20073;-58
2021/05/03 05:15:47;;;;;;;23.33;11.70;;;4.00;99.90;;;;;;5010730;28;20033;-58
2021/05/03 05:18:13;;;;;;;20.98;12.00;;;4.10;99.90;;;;;;5009704;28;20124;-58
2021/05/03 05:20:39;;;;;;;24.08;12.18;;;4.20;99.90;;;;;;5011129;28;20030;-58
2021/05/03 05:23:06;;;;;;;26.65;12.23;;;4.10;99.90;;;;;;5010998;28;20119;-58
2021/05/03 05:25:32;;;;;;;22.90;11.88;;;4.20;99.90;;;;;;5011159;28;20046;-58
2021/05/03 05:27:58;;;;;;;20.92;12.90;;;4.30;99.90;;;;;;5011241;28;20026;-58
2021/05/03 05:30:24;;;;;;;27.48;12.57;;;4.50;99.90;;;;;;5011214;28;20022;-58
2021/05/03 05:32:49;;;;;;;24.52;12.95;;;4.50;99.90;;;;;;5010973;28;20026;-58
2021/05/03 05:35:15;;;;;;;27.60;13.13;;;4.70;99.90;;;;;;5010915;28;20451;-58
2021/05/03 05:37:40;;;;;;;28.55;12.43;;;4.70;99.90;;;;;;5014360;28;20089;-58
2021/05/03 05:40:07;;;;;;;27.17;14.57;;;4.80;99.90;;;;;;5014730;28;20058;-58
2021/05/03 05:42:33;;;;;;;26.52;14.20;;;4.80;99.90;;;;;;5003271;28;20030;-58
2021/05/03 05:44:58;;;;;;;26.48;14.32;;;4.90;99.90;;;;;;4993078;28;20553;-58
2021/05/03 05:47:24;;;;;;;22.70;14.38;;;4.90;99.90;;;;;;4995825;28;20030;-58
2021/05/03 05:49:50;;;;;;;26.08;14.75;;;5.00;99.90;;;;;;4995286;28;20034;-58
2021/05/03 05:52:15;;;;;;;18.95;13.40;;;5.20;99.90;;;;;;4995179;28;20041;-58
2021/05/03 05:54:41;;;;;;;22.73;14.23;;;5.20;99.90;;;;;;4991721;28;20894;-58
2021/05/03 05:57:07;;;;;;;24.65;13.98;;;5.10;99.90;;;;;;4994925;28;20105;-58
2021/05/03 05:59:32;;;;;;;29.83;15.77;;;5.10;99.90;;;;;;5007024;28;20482;-58
2021/05/03 06:01:58;;;;;;;22.38;14.27;;;5.20;99.90;;;;;;5007735;28;20108;-58
2021/05/03 06:04:23;;;;;;;28.35;15.25;;;5.30;99.90;;;;;;5002487;28;20034;-58
2021/05/03 06:06:49;;;;;;;30.23;15.75;;;5.40;99.90;;;;;;5004641;28;20033;-58
2021/05/03 06:09:15;;;;;;;32.42;15.88;;;5.50;99.90;;;;;;4998126;28;20044;-58
2021/05/03 06:11:40;;;;;;;28.88;16.20;;;5.60;99.90;;;;;;4983551;28;20486;-58
2021/05/03 06:14:06;;;;;;;30.10;16.80;;;5.60;99.90;;;;;;5004897;28;20060;-58
2021/05/03 06:16:32;;;;;;;25.05;16.98;;;5.70;99.90;;;;;;4997799;28;20034;-58
2021/05/03 06:18:58;;;;;;;27.20;15.05;;;5.70;99.90;;;;;;5006078;28;20036;-58
2021/05/03 06:21:24;;;;;;;29.92;17.58;;;5.80;99.90;;;;;;5007881;28;20105;-58
2021/05/03 06:23:49;;;;;;;24.85;17.65;;;5.90;99.90;;;;;;5009696;28;20160;-58
2021/05/03 06:26:15;;;;;;;33.67;19.00;;;6.10;99.90;;;;;;5007497;28;20125;-58
2021/05/03 06:28:42;;;;;;;35.40;19.00;;;6.10;99.90;;;;;;5007149;28;20030;-58
2021/05/03 06:31:08;;;;;;;28.48;18.35;;;6.20;99.90;;;;;;5012010;28;20028;-58
2021/05/03 06:33:33;;;;;;;32.88;18.65;;;6.30;99.90;;;;;;5022387;28;20029;-58
2021/05/03 06:35:59;;;;;;;25.20;17.63;;;6.40;99.90;;;;;;5019291;28;20064;-58
2021/05/03 06:38:24;;;;;;;30.42;20.10;;;6.40;99.90;;;;;;5016423;28;20057;-58
2021/05/03 06:40:50;;;;;;;38.70;20.70;;;6.50;99.90;;;;;;5002540;28;20064;-58
2021/05/03 06:43:16;;;;;;;36.50;21.55;;;6.60;99.90;;;;;;5000071;28;20095;-58
2021/05/03 06:45:43;;;;;;;35.58;22.02;;;6.80;99.90;;;;;;5000122;28;20144;-58
2021/05/03 06:48:09;;;;;;;41.00;22.10;;;6.80;99.90;;;;;;4998939;28;20433;-58
2021/05/03 06:50:36;;;;;;;32.53;21.30;;;6.90;99.90;;;;;;4998589;28;20026;-58
2021/05/03 06:53:02;;;;;;;39.40;22.25;;;7.00;99.90;;;;;;4999018;28;20088;-58
2021/05/03 06:55:28;;;;;;;32.92;22.42;;;7.10;99.90;;;;;;5003452;28;20026;-58
2021/05/03 06:57:54;;;;;;;33.03;24.23;;;7.30;99.90;;;;;;4999606;28;20072;-58
2021/05/03 07:00:24;;;;;;;34.28;22.45;;;7.50;99.90;;;;;;4996237;28;20029;-58
2021/05/03 07:02:49;;;;;;;31.77;21.70;;;7.90;99.90;;;;;;5005243;28;20431;-58
2021/05/03 07:05:15;;;;;;;32.75;22.40;;;8.40;99.90;;;;;;5005590;28;20088;-58
2021/05/03 07:07:41;;;;;;;31.05;21.88;;;9.00;99.90;;;;;;5000094;28;20038;-58
2021/05/03 07:10:07;;;;;;;30.42;22.85;;;9.10;99.90;;;;;;4997554;28;20034;-58
2021/05/03 07:12:39;;;;;;;32.55;21.98;;;8.80;99.90;;;;;;5002583;28;20389;-58
2021/05/03 07:15:05;;;;;;;31.50;22.95;;;8.90;99.90;;;;;;5006528;28;20040;-58
2021/05/03 07:17:31;;;;;;;29.85;22.30;;;9.40;99.90;;;;;;4999725;28;20038;-58
2021/05/03 07:20:00;;;;;;;29.38;20.83;;;9.60;99.90;;;;;;5002675;28;20026;-59
2021/05/03 07:22:25;;;;;;;25.63;18.90;;;10.20;99.90;;;;;;4998528;28;20041;-58
2021/05/03 07:24:51;;;;;;;25.70;19.70;;;10.70;99.90;;;;;;4994958;28;20042;-58
2021/05/03 07:27:17;;;;;;;24.67;18.65;;;11.20;99.90;;;;;;4986896;28;20034;-58
2021/05/03 07:29:42;;;;;;;26.23;20.55;;;11.50;99.90;;;;;;5003066;28;20029;-58
2021/05/03 07:32:08;;;;;;;26.33;20.17;;;11.20;99.90;;;;;;5002794;28;20029;-59
2021/05/03 07:34:34;;;;;;;23.35;16.58;;;11.10;99.90;;;;;;4984549;28;20026;-58
2021/05/03 07:36:59;;;;;;;24.67;19.35;;;11.20;99.90;;;;;;4990737;28;20045;-58
2021/05/03 07:39:25;;;;;;;24.52;18.15;;;11.30;99.90;;;;;;5006057;28;20373;-58
2021/05/03 07:41:51;;;;;;;25.23;19.08;;;11.30;99.90;;;;;;4993823;28;20097;-58
2021/05/03 07:44:16;;;;;;;22.67;18.17;;;11.60;99.90;;;;;;5001214;28;20105;-58
2021/05/03 07:46:42;;;;;;;24.88;20.08;;;12.20;99.90;;;;;;4995851;28;20599;-59
2021/05/03 07:49:08;;;;;;;26.60;18.88;;;13.00;99.90;;;;;;4988542;28;20033;-58
2021/05/03 07:51:34;;;;;;;24.33;18.42;;;14.10;99.90;;;;;;4988194;28;20033;-59
2021/05/03 07:54:00;;;;;;;28.52;20.02;;;13.60;99.90;;;;;;4982364;28;20060;-59
2021/05/03 07:56:30;;;;;;;24.20;19.50;;;13.00;99.90;;;;;;4999060;28;20166;-58
2021/05/03 07:58:56;;;;;;;23.60;19.63;;;12.90;99.90;;;;;;4986460;28;20117;-58
2021/05/03 08:01:22;;;;;;;25.35;19.40;;;12.70;99.90;;;;;;4996383;28;20758;-59
2021/05/03 08:03:47;;;;;;;25.98;20.02;;;13.20;99.90;;;;;;4990194;28;20473;-59
2021/05/03 08:06:14;;;;;;;25.88;19.52;;;13.10;99.90;;;;;;5000960;28;20057;-59
2021/05/03 08:08:42;;;;;;;23.77;18.67;;;12.80;99.90;;;;;;5001989;28;20056;-58
2021/05/03 08:11:08;;;;;;;29.05;20.33;;;12.40;99.90;;;;;;5005295;28;20062;-58
2021/05/03 08:13:34;;;;;;;23.88;18.17;;;12.40;99.90;;;;;;4987119;28;20037;-58
2021/05/03 08:16:02;;;;;;;25.23;19.05;;;12.40;99.90;;;;;;5002945;28;20060;-58
2021/05/03 08:18:29;;;;;;;23.98;18.20;;;12.70;99.90;;;;;;5002842;28;20045;-58
2021/05/03 08:20:56;;;;;;;21.23;16.23;;;13.30;99.90;;;;;;5005907;28;20080;-58
2021/05/03 08:23:22;;;;;;;23.20;17.00;;;13.50;99.90;;;;;;4992314;28;20058;-58
2021/05/03 08:25:49;;;;;;;24.70;18.67;;;13.70;99.90;;;;;;4998049;28;20053;-59
2021/05/03 08:28:16;;;;;;;21.98;17.00;;;13.70;99.90;;;;;;5003975;28;20538;-58
2021/05/03 08:30:42;;;;;;;22.75;17.50;;;13.30;99.90;;;;;;5004764;28;20497;-58
2021/05/03 08:33:07;;;;;;;21.90;17.60;;;13.00;99.90;;;;;;4982931;28;21108;-58
2021/05/03 08:35:33;;;;;;;22.52;16.88;;;12.40;99.90;;;;;;4989498;28;20449;-58
2021/05/03 08:37:59;;;;;;;28.88;18.48;;;12.10;99.90;;;;;;4997915;28;20034;-58
2021/05/03 08:40:25;;;;;;;22.90;17.35;;;12.50;99.90;;;;;;5003803;28;20034;-59
2021/05/03 08:42:51;;;;;;;19.95;16.73;;;13.00;99.90;;;;;;4996634;28;20026;-58
2021/05/03 08:45:16;;;;;;;21.83;16.38;;;13.20;99.90;;;;;;4987927;28;20561;-59
2021/05/03 08:47:59;;;;;;;23.08;16.13;;;13.60;99.90;;;;;;5002142;28;20121;-59
2021/05/03 08:50:44;;;;;;;18.95;13.77;;;13.70;99.90;;;;;;4998696;28;20034;-59
2021/05/03 08:53:12;;;;;;;15.73;12.45;;;13.70;99.90;;;;;;4986202;28;20057;-59
2021/05/03 08:55:38;;;;;;;19.48;13.80;;;13.30;99.80;;;;;;4986874;28;20045;-58
2021/05/03 08:58:04;;;;;;;16.40;12.50;;;13.00;99.90;;;;;;4989642;28;20034;-59
2021/05/03 09:00:30;;;;;;;18.42;13.40;;;13.60;99.90;;;;;;5002387;28;20032;-60
2021/05/03 09:02:56;;;;;;;14.35;12.18;;;14.10;99.00;;;;;;4988243;28;20554;-58
2021/05/03 09:05:22;;;;;;;17.98;11.75;;;13.90;96.70;;;;;;5000956;28;20029;-58
2021/05/03 09:07:50;;;;;;;15.13;12.52;;;13.70;97.20;;;;;;5005794;28;20120;-59
2021/05/03 09:10:18;;;;;;;16.70;12.40;;;13.80;97.60;;;;;;4997215;28;20486;-59
2021/05/03 09:12:44;;;;;;;15.02;10.75;;;14.20;96.30;;;;;;5000508;28;20041;-59
2021/05/03 09:15:10;;;;;;;14.25;10.85;;;14.60;94.50;;;;;;4999119;28;20433;-59
2021/05/03 09:17:44;;;;;;;13.23;10.13;;;14.40;92.70;;;;;;4999636;28;20034;-58
2021/05/03 09:20:17;;;;;;;13.65;10.30;;;14.00;91.60;;;;;;5005250;28;20372;-58
2021/05/03 09:22:52;;;;;;;13.02;9.57;;;13.90;92.00;;;;;;4993968;28;20022;-58
2021/05/03 09:25:19;;;;;;;10.15;8.90;;;14.40;90.40;;;;;;4998250;28;20706;-59
2021/05/03 09:27:48;;;;;;;11.82;8.60;;;15.30;87.00;;;;;;5001511;28;20073;-59
2021/05/03 09:30:30;;;;;;;10.32;9.00;;;15.30;85.70;;;;;;5002576;28;20033;-59
2021/05/03 09:33:13;;;;;;;10.68;8.35;;;14.80;86.10;;;;;;4999299;28;20521;-60
2021/05/03 09:35:43;;;;;;;12.65;9.05;;;14.60;85.50;;;;;;5004804;28;20041;-58
2021/05/03 09:38:30;;;;;;;8.60;7.70;;;14.50;83.40;;;;;;5003485;28;20577;-58
2021/05/03 09:41:10;;;;;;;8.65;6.75;;;15.30;84.10;;;;;;5000399;28;20281;-59
2021/05/03 09:43:37;;;;;;;10.50;7.93;;;15.70;78.00;;;;;;4980156;28;20015;-56
2021/05/03 09:46:25;;;;;;;11.82;7.00;;;16.00;74.10;;;;;;4994524;28;20060;-56
2021/05/03 09:48:52;;;;;;;8.05;6.82;;;16.40;70.50;;;;;;4985437;28;20027;-56
2021/05/03 09:51:35;;;;;;;10.82;7.30;;;15.90;71.60;;;;;;4997764;28;20030;-58
2021/05/03 09:54:02;;;;;;;;;;;16.30;69.00;;;;;;4981612;28;20079;-58
2021/05/03 09:56:44;;;;;;;7.97;6.55;;;15.60;71.90;;;;;;4993960;28;19917;-59
2021/05/03 09:59:29;;;;;;;9.80;7.73;;;15.70;70.50;;;;;;4992407;28;20029;-58
2021/05/03 10:02:14;;;;;;;8.23;7.10;;;15.60;71.60;;;;;;4993029;28;20033;-58
2021/05/03 10:04:52;;;;;;;8.43;7.35;;;15.50;68.50;;;;;;4995199;28;20049;-56
2021/05/03 10:07:20;;;;;;;9.80;7.28;;;15.70;68.90;;;;;;4999990;28;20026;-58
2021/05/03 10:09:51;;;;;;;9.43;7.28;;;15.10;68.40;;;;;;4986406;28;20585;-59
2021/05/03 10:12:18;;;;;;;9.43;7.50;;;15.30;68.60;;;;;;4988543;28;20029;-58
2021/05/03 10:14:48;;;;;;;8.82;7.85;;;15.40;67.50;;;;;;4983490;28;20457;-58
2021/05/03 10:17:16;;;;;;;10.20;8.50;;;15.10;68.50;;;;;;5000938;28;20057;-58
2021/05/03 10:19:43;;;;;;;12.52;7.80;;;14.80;70.20;;;;;;5000208;28;20026;-57
2021/05/03 10:22:20;;;;;;;10.10;8.48;;;15.30;69.70;;;;;;5004632;28;20033;-58
2021/05/03 10:24:49;;;;;;;18.35;8.07;;;15.70;69.60;;;;;;4981505;28;20421;-58
2021/05/03 10:27:19;;;;;;;16.10;7.85;;;16.10;68.70;;;;;;4996963;28;20049;-58
2021/05/03 10:29:46;;;;;;;12.02;7.10;;;15.70;64.20;;;;;;5000523;28;20819;-58
2021/05/03 10:32:23;;;;;;;8.95;7.45;;;15.60;66.20;;;;;;4999332;28;20034;-59
2021/05/03 10:34:53;;;;;;;12.65;8.40;;;16.40;64.30;;;;;;4996679;28;20029;-58
2021/05/03 10:37:32;;;;;;;7.78;6.05;;;16.50;62.80;;;;;;5003602;28;20540;-58
2021/05/03 10:40:28;;;;;;;8.70;6.80;;;16.20;59.70;;;;;;5007524;28;20565;-58
2021/05/03 10:43:03;;;;;;;9.55;7.10;;;15.40;60.60;;;;;;4996496;28;20026;-58
2021/05/03 10:46:13;;;;;;;12.18;7.15;;;15.50;65.80;;;;;;5002758;28;20425;-57
2021/05/03 10:54:30;;;;;;;11.60;7.00;;;15.70;62.60;;;;;;4986702;28;20096;-57
2021/05/03 10:57:05;;;;;;;8.40;6.47;;;15.50;61.40;;;;;;4997604;28;20042;-57
2021/05/03 10:59:51;;;;;;;10.23;6.25;;;15.40;61.80;;;;;;5000609;28;20030;-57
2021/05/03 11:02:19;;;;;;;12.82;7.28;;;16.10;59.00;;;;;;4998524;28;20021;-57
2021/05/03 11:05:26;;;;;;;10.95;8.13;;;16.40;62.30;;;;;;4994266;28;20553;-56
2021/05/03 11:08:04;;;;;;;11.15;7.10;;;17.50;59.50;;;;;;5002994;28;20025;-57
2021/05/03 11:10:54;;;;;;;11.00;7.07;;;17.20;58.50;;;;;;5001442;28;20022;-57
2021/05/03 11:13:48;;;;;;;10.10;6.45;;;17.00;58.90;;;;;;4971415;28;20037;-57
2021/05/03 11:16:34;;;;;;;10.60;7.45;;;16.70;57.60;;;;;;4998428;28;20073;-57
2021/05/03 11:19:02;;;;;;;8.98;7.68;;;16.20;59.20;;;;;;5000001;28;20038;-57
2021/05/03 11:21:54;;;;;;;9.60;8.00;;;16.20;59.40;;;;;;4991433;28;20099;-57
2021/05/03 11:27:12;;;;;;;9.05;6.63;;;16.40;58.90;;;;;;5080956;28;20452;-59
2021/05/03 11:29:46;;;;;;;9.18;8.18;;;16.50;58.20;;;;;;5080271;28;20035;-59
2021/05/03 11:32:13;;;;;;;10.00;7.32;;;16.00;58.80;;;;;;5078234;28;20476;-59
2021/05/03 11:35:09;;;;;;;7.80;7.00;;;16.00;59.10;;;;;;5097331;28;20027;-60
2021/05/03 11:38:09;;;;;;;10.52;6.38;;;16.30;58.70;;;;;;5087805;28;20441;-59
2021/05/03 11:41:33;;;;;;;9.27;5.50;;;16.30;58.30;;;;;;5077672;28;20449;-59
2021/05/03 11:46:34;;;;;;;8.98;5.93;;;16.20;54.60;;;;;;5081056;28;20089;-59
2021/05/03 11:49:09;;;;;;;9.55;7.35;;;16.30;55.20;;;;;;5078092;28;20028;-59
2021/05/03 11:51:46;;;;;;;7.45;6.60;;;16.40;57.10;;;;;;5069366;28;20059;-60
2021/05/03 11:54:28;;;;;;;6.40;5.72;;;16.70;57.30;;;;;;5062727;28;20119;-59
2021/05/03 11:57:03;;;;;;;6.63;5.97;;;17.00;55.70;;;;;;5062444;28;20225;-60
2021/05/03 11:59:30;;;;;;;8.63;5.68;;;17.80;53.30;;;;;;5077702;28;20377;-58
2021/05/03 12:01:58;;;;;;;9.35;6.40;;;18.90;52.10;;;;;;5079764;28;20058;-57
2021/05/03 12:04:43;;;;;;;7.20;5.90;;;19.30;50.60;;;;;;5067223;28;20028;-58
2021/05/03 12:07:30;;;;;;;6.85;5.95;;;19.00;51.20;;;;;;5066483;28;20539;-60
2021/05/03 12:10:12;;;;;;;9.20;6.80;;;17.70;51.90;;;;;;5080968;28;20036;-59
2021/05/03 12:12:49;;;;;;;9.27;6.88;;;17.50;53.20;;;;;;5073901;28;20573;-60
2021/05/03 12:15:15;;;;;;;8.20;6.50;;;16.80;53.30;;;;;;5069386;28;20028;-60
2021/05/03 12:17:41;;;;;;;8.32;5.95;;;16.60;54.80;;;;;;5073156;28;20029;-59
2021/05/03 12:20:36;;;;;;;8.23;6.35;;;16.60;55.30;;;;;;5076354;28;20539;-57
2021/05/03 12:23:07;;;;;;;8.45;5.85;;;17.00;56.70;;;;;;5075553;28;20036;-59
2021/05/03 12:25:46;;;;;;;10.05;6.40;;;17.50;53.40;;;;;;5072226;28;20052;-59
2021/05/03 12:28:14;;;;;;;8.20;5.30;;;16.40;52.60;;;;;;5070943;28;20609;-59
2021/05/03 12:30:41;;;;;;;7.85;5.32;;;16.20;54.30;;;;;;5075286;28;20055;-59
2021/05/03 12:33:13;;;;;;;8.32;6.28;;;16.80;55.10;;;;;;5078068;28;20076;-59
2021/05/03 12:35:39;;;;;;;6.00;4.83;;;16.90;54.30;;;;;;5071943;28;20039;-59
2021/05/03 12:38:29;;;;;;;6.53;5.07;;;17.40;54.10;;;;;;5060517;28;20037;-59
2021/05/03 12:41:00;;;;;;;5.90;5.20;;;17.80;52.20;;;;;;5051535;28;20032;-59
2021/05/03 12:43:46;;;;;;;8.90;5.35;;;18.00;50.60;;;;;;5062020;28;20041;-59
2021/05/03 12:46:16;;;;;;;34.88;8.07;;;17.80;52.20;;;;;;5056508;28;20048;-59
2021/05/03 12:49:17;;;;;;;7.00;5.25;;;17.30;52.20;;;;;;5062445;28;20051;-59
2021/05/03 12:52:06;;;;;;;7.22;5.07;;;17.50;51.20;;;;;;5051813;28;20036;-59
2021/05/03 12:55:05;;;;;;;6.60;5.90;;;17.50;53.10;;;;;;5054009;28;20028;-59
2021/05/03 12:57:43;;;;;;;5.93;4.95;;;17.10;53.60;;;;;;5068967;28;20067;-59
2021/05/03 13:00:17;;;;;;;6.25;5.65;;;17.40;52.70;;;;;;5069897;28;20104;-60
2021/05/03 13:03:05;;;;;;;6.00;5.32;;;17.70;53.30;;;;;;5048087;28;20025;-60
2021/05/03 13:05:45;;;;;;;13.30;6.22;;;17.20;51.90;;;;;;5058266;28;20028;-59
2021/05/03 13:11:49;;;;;;;7.22;5.65;;;16.30;54.90;;;;;;5046543;28;20037;-59
2021/05/03 13:22:56;;;;;;;7.07;4.50;;;18.80;48.80;;;;;;5057824;28;20067;-59
2021/05/03 13:25:36;;;;;;;6.30;5.50;;;18.40;48.80;;;;;;5056183;28;20569;-59
2021/05/03 13:28:06;;;;;;;9.18;5.85;;;17.70;48.80;;;;;;5063791;28;20025;-59
2021/05/03 13:30:33;;;;;;;7.95;6.03;;;16.80;50.20;;;;;;5061609;28;20030;-59
2021/05/03 13:32:59;;;;;;;5.60;5.10;;;16.20;52.40;;;;;;5055459;28;20021;-59
2021/05/03 13:35:25;;;;;;;8.10;6.32;;;16.00;53.10;;;;;;5057091;28;20040;-59